Carpio, North Dakota
Current Conditions -  °F | °C
As of 4:53 AM on Thursday 27 Nov 2014 (Local Time) from KMIB Reporting Station
Overcast Overcast  
Wind Chill: -8°   Ceiling: 500
Heat Index: -8°   Visibility: 10mi
Dew Point: -11°   Wind: 3mph
Humidity: 84%   Direction: 150°SSE
Pressure: 30.35"   Gusts: NA
Location:  48.44°N, 101.71°W
Report Text: KMIB 271053Z AUTO 15003KT 10SM OVC005 M22/M24 A3035 RMK AO2 VIS 1/2 RWY29 CIG 003V005
Loading
Personal Weather Stations






























Interactive Weather Map New forecast layout! Learn more

10-Day Weather Forecast

Advertisements
Track Severe Weather on mobile